Time;durP1;ratioP1;P1;durP2;ratioP2;P2;SDS_P1;SDS_P2;PMS_P1;PMS_P2;Temp;Humidity;BMP_temperature;BMP_pressure;BME280_temperature;BME280_humidity;BME280_pressure;Samples;Min_cycle;Max_cycle;Signal;HPM_P1;HPM_P2
2021/08/12 00:01:15;;;;;;;;;;;19.60;99.90;;;;;;5032978;28;19916;-67
2021/08/12 00:03:41;;;;;;;;;;;19.50;99.90;;;;;;5033247;28;20003;-67
2021/08/12 00:06:06;;;;;;;;;;;19.50;99.90;;;;;;5033079;28;19909;-67
2021/08/12 00:08:32;;;;;;;;;;;19.50;99.90;;;;;;5032482;28;19909;-67
2021/08/12 00:10:57;;;;;;;;;;;19.40;99.90;;;;;;5033009;28;19909;-67
2021/08/12 00:13:23;;;;;;;;;;;19.40;99.90;;;;;;5032590;28;19971;-68
2021/08/12 00:15:48;;;;;;;;;;;19.40;99.90;;;;;;5033051;28;19917;-68
2021/08/12 00:18:14;;;;;;;;;;;19.40;99.90;;;;;;5031819;28;19923;-67
2021/08/12 00:20:40;;;;;;;;;;;19.30;99.90;;;;;;5032791;28;20323;-67
2021/08/12 00:23:05;;;;;;;;;;;19.30;99.90;;;;;;5032643;28;20282;-68
2021/08/12 00:25:31;;;;;;;;;;;19.20;1.00;;;;;;5032918;28;20384;-67
2021/08/12 00:27:56;;;;;;;;;;;19.20;1.00;;;;;;5031742;28;19977;-67
2021/08/12 00:30:22;;;;;;;;;;;19.10;1.00;;;;;;5032686;28;20007;-68
2021/08/12 00:32:47;;;;;;;;;;;19.20;1.00;;;;;;5031107;28;19913;-68
2021/08/12 00:35:14;;;;;;;;;;;19.10;1.00;;;;;;5032922;28;19913;-67
2021/08/12 00:37:40;;;;;;;;;;;19.10;1.00;;;;;;5031893;28;20432;-68
2021/08/12 00:40:06;;;;;;;;;;;19.10;1.00;;;;;;5032931;28;19937;-67
2021/08/12 00:42:31;;;;;;;;;;;19.10;1.00;;;;;;5031643;28;19909;-68
2021/08/12 00:44:57;;;;;;;;;;;19.10;1.00;;;;;;5032443;28;19909;-69
2021/08/12 00:47:22;;;;;;;;;;;19.00;1.00;;;;;;5031891;28;19983;-67
2021/08/12 00:49:48;;;;;;;;;;;19.00;1.00;;;;;;5032146;28;20433;-68
2021/08/12 00:52:14;;;;;;;;;;;19.00;1.00;;;;;;5032359;28;19909;-68
2021/08/12 00:54:39;;;;;;;;;;;19.00;1.00;;;;;;5031929;28;20370;-68
2021/08/12 00:57:06;;;;;;;;;;;18.90;1.00;;;;;;5031644;28;19909;-67
2021/08/12 00:59:34;;;;;;;;;;;18.90;1.00;;;;;;5030921;28;20372;-68
2021/08/12 01:02:01;;;;;;;;;;;18.80;1.00;;;;;;5032137;28;19948;-67
2021/08/12 01:04:26;;;;;;;;;;;18.80;1.00;;;;;;5031685;28;19909;-67
2021/08/12 01:06:56;;;;;;;;;;;18.80;1.00;;;;;;5032550;28;19913;-68
2021/08/12 01:09:27;;;;;;;;;;;18.70;1.00;;;;;;5031602;28;19909;-67
2021/08/12 01:11:56;;;;;;;;;;;18.70;1.00;;;;;;5031969;28;20370;-66
2021/08/12 01:14:31;;;;;;;;;;;18.70;1.00;;;;;;5031568;28;20001;-67
2021/08/12 01:17:00;;;;;;;;;;;18.60;1.00;;;;;;5031905;28;19929;-68
2021/08/12 01:19:26;;;;;;;;;;;18.60;1.00;;;;;;5031022;28;19959;-68
2021/08/12 01:21:59;;;;;;;;;;;18.60;1.00;;;;;;5031803;28;19941;-67
2021/08/12 01:24:30;;;;;;;;;;;18.50;1.00;;;;;;5031446;28;19955;-68
2021/08/12 01:26:58;;;;;;;;;;;18.50;1.00;;;;;;5031570;28;19910;-68
2021/08/12 01:29:37;;;;;;;;;;;18.50;1.00;;;;;;5030591;28;19909;-67
2021/08/12 01:32:18;;;;;;;;;;;18.50;1.00;;;;;;5031780;28;19925;-67
2021/08/12 01:35:01;;;;;;;;;;;18.50;1.00;;;;;;5031205;28;19916;-67
2021/08/12 01:37:30;;;;;;;;;;;18.50;1.00;;;;;;5030999;28;19927;-67
2021/08/12 01:39:56;;;;;;;;;;;18.40;1.00;;;;;;5031253;28;19985;-67
2021/08/12 01:42:26;;;;;;;;;;;18.40;1.00;;;;;;5029867;28;19909;-67
2021/08/12 01:44:54;;;;;;;;;;;18.40;1.00;;;;;;5030822;28;19909;-67
2021/08/12 01:47:19;;;;;;;;;;;18.30;1.00;;;;;;5030832;28;19913;-66
2021/08/12 01:49:45;;;;;;;;;;;18.30;1.00;;;;;;5030876;28;19909;-66
2021/08/12 01:52:11;;;;;;;;;;;18.30;1.00;;;;;;5031370;28;20369;-66
2021/08/12 01:54:38;;;;;;;;;;;18.20;1.00;;;;;;5031191;28;19909;-66
2021/08/12 01:57:04;;;;;;;;;;;18.20;1.00;;;;;;5031534;28;20269;-66
2021/08/12 01:59:31;;;;;;;;;;;18.20;1.00;;;;;;5029959;28;20365;-66
2021/08/12 02:01:57;;;;;;;;;;;18.10;1.00;;;;;;5031282;28;20306;-66
2021/08/12 02:04:23;;;;;;;;;;;18.10;1.00;;;;;;5030812;28;19914;-66
2021/08/12 02:06:49;;;;;;;;;;;18.00;1.00;;;;;;5029310;28;19917;-66
2021/08/12 02:09:14;;;;;;;;;;;18.00;1.00;;;;;;5029647;28;19916;-66
2021/08/12 02:11:40;;;;;;;;;;;18.00;1.00;;;;;;5030790;28;19909;-66
2021/08/12 02:14:05;;;;;;;;;;;17.90;1.00;;;;;;5030364;28;19909;-67
2021/08/12 02:16:31;;;;;;;;;;;17.90;1.00;;;;;;5031434;28;19915;-67
2021/08/12 02:18:58;;;;;;;;;;;17.90;1.00;;;;;;5029731;28;19913;-67
2021/08/12 02:21:26;;;;;;;;;;;17.90;1.00;;;;;;5030868;28;19909;-67
2021/08/12 02:23:55;;;;;;;;;;;17.90;1.00;;;;;;5030646;28;20335;-67
2021/08/12 02:26:21;;;;;;;;;;;17.90;1.00;;;;;;5030951;28;20290;-67
2021/08/12 02:28:48;;;;;;;;;;;17.90;1.00;;;;;;5029819;28;19909;-67
2021/08/12 02:31:15;;;;;;;;;;;17.90;1.00;;;;;;5030313;28;20293;-67
2021/08/12 02:33:42;;;;;;;;;;;18.00;1.00;;;;;;5030730;28;20342;-67
2021/08/12 02:36:08;;;;;;;;;;;17.90;1.00;;;;;;5030557;28;19940;-66
2021/08/12 02:38:35;;;;;;;;;;;17.90;1.00;;;;;;5029896;28;19913;-66
2021/08/12 02:41:00;;;;;;;;;;;17.90;1.00;;;;;;5030260;28;19909;-67
2021/08/12 02:43:27;;;;;;;;;;;17.90;1.00;;;;;;5030181;28;19992;-67
2021/08/12 02:45:57;;;;;;;;;;;17.80;1.00;;;;;;5030443;28;19913;-67
2021/08/12 02:48:24;;;;;;;;;;;17.80;1.00;;;;;;5029703;28;19913;-66
2021/08/12 02:50:50;;;;;;;;;;;17.70;1.00;;;;;;5030451;28;19960;-66
2021/08/12 02:53:16;;;;;;;;;;;17.70;1.00;;;;;;5030246;28;19909;-67
2021/08/12 02:55:42;;;;;;;;;;;17.70;1.00;;;;;;5030386;28;19971;-66
2021/08/12 02:58:08;;;;;;;;;;;17.70;1.00;;;;;;5029434;28;20015;-67
2021/08/12 03:00:34;;;;;;;;;;;17.70;1.00;;;;;;5030098;28;19933;-66
2021/08/12 03:03:00;;;;;;;;;;;17.60;1.00;;;;;;5030319;28;19972;-67
2021/08/12 03:05:26;;;;;;;;;;;17.60;1.00;;;;;;5030117;28;19920;-67
2021/08/12 03:07:52;;;;;;;;;;;17.60;1.00;;;;;;5029394;28;19956;-67
2021/08/12 03:10:19;;;;;;;;;;;17.60;1.00;;;;;;5030385;28;19996;-67
2021/08/12 03:12:45;;;;;;;;;;;17.50;1.00;;;;;;5030370;28;19913;-67
2021/08/12 03:15:11;;;;;;;;;;;17.60;1.00;;;;;;5029957;28;19919;-65
2021/08/12 03:17:37;;;;;;;;;;;17.60;1.00;;;;;;5029814;28;20285;-67
2021/08/12 03:20:04;;;;;;;;;;;17.60;1.00;;;;;;5031558;28;20004;-66
2021/08/12 03:22:29;;;;;;;;;;;17.60;1.00;;;;;;5033863;28;20309;-67
2021/08/12 03:24:55;;;;;;;;;;;17.60;1.00;;;;;;5032442;28;19909;-67
2021/08/12 03:27:20;;;;;;;;;;;17.50;1.00;;;;;;5033124;28;19913;-67
2021/08/12 03:29:46;;;;;;;;;;;17.50;1.00;;;;;;5033099;28;20385;-66
2021/08/12 03:32:12;;;;;;;;;;;17.50;1.00;;;;;;5033801;28;19931;-67
2021/08/12 03:34:38;;;;;;;;;;;17.50;1.00;;;;;;5033568;28;19974;-67
2021/08/12 03:37:04;;;;;;;;;;;17.50;1.00;;;;;;5033709;28;20000;-67
2021/08/12 03:39:31;;;;;;;;;;;17.50;1.00;;;;;;5032508;28;19999;-66
2021/08/12 03:41:57;;;;;;;;;;;17.40;1.00;;;;;;5033571;28;19909;-67
2021/08/12 03:44:22;;;;;;;;;;;17.40;1.00;;;;;;5032990;28;19919;-67
2021/08/12 03:46:48;;;;;;;;;;;17.40;1.00;;;;;;5033361;28;20000;-67
2021/08/12 03:49:13;;;;;;;;;;;17.40;1.00;;;;;;5032806;28;19909;-67
2021/08/12 03:51:39;;;;;;;;;;;17.40;1.00;;;;;;5032971;28;20035;-67
2021/08/12 03:54:04;;;;;;;;;;;17.30;1.00;;;;;;5033170;28;19916;-66
2021/08/12 03:56:30;;;;;;;;;;;17.30;1.00;;;;;;5033853;28;20259;-67
2021/08/12 03:58:55;;;;;;;;;;;17.30;1.00;;;;;;5032192;28;19913;-66
2021/08/12 04:01:21;;;;;;;;;;;17.30;1.00;;;;;;5033069;28;20345;-66
2021/08/12 04:03:47;;;;;;;;;;;17.30;1.00;;;;;;5032917;28;19909;-66
2021/08/12 04:06:13;;;;;;;;;;;17.30;1.00;;;;;;5033514;28;19981;-69
2021/08/12 04:08:38;;;;;;;;;;;17.30;1.00;;;;;;5032283;28;19992;-66
2021/08/12 04:11:04;;;;;;;;;;;17.30;1.00;;;;;;5033230;28;19909;-66
2021/08/12 04:13:29;;;;;;;;;;;17.40;1.00;;;;;;5032478;28;19917;-66
2021/08/12 04:15:55;;;;;;;;;;;17.40;1.00;;;;;;5032945;28;19909;-66
2021/08/12 04:18:21;;;;;;;;;;;17.40;1.00;;;;;;5032212;28;20300;-66
2021/08/12 04:20:46;;;;;;;;;;;17.40;1.00;;;;;;5032774;28;19913;-66
2021/08/12 04:23:13;;;;;;;;;;;17.40;1.00;;;;;;5031498;28;20027;-66
2021/08/12 04:25:40;;;;;;;;;;;17.50;1.00;;;;;;5033218;28;19999;-66
2021/08/12 04:28:06;;;;;;;;;;;17.50;1.00;;;;;;5031348;28;19909;-69
2021/08/12 04:30:31;;;;;;;;;;;17.50;1.00;;;;;;5032401;28;20000;-68
2021/08/12 04:32:57;;;;;;;;;;;17.60;1.00;;;;;;5031807;28;19916;-68
2021/08/12 04:35:22;;;;;;;;;;;17.70;1.00;;;;;;5032737;28;20274;-68
2021/08/12 04:37:48;;;;;;;;;;;17.70;1.00;;;;;;5031672;28;19942;-68
2021/08/12 04:40:18;;;;;;;;;;;17.70;1.00;;;;;;5032783;28;20389;-66
2021/08/12 04:42:44;;;;;;;;;;;17.80;1.00;;;;;;5032023;28;19920;-66
2021/08/12 04:45:10;;;;;;;;;;;17.90;1.00;;;;;;5032461;28;19909;-69
2021/08/12 04:47:36;;;;;;;;;;;18.00;1.00;;;;;;5031780;28;19932;-66
2021/08/12 04:50:02;;;;;;;;;;;18.10;1.00;;;;;;5031876;28;20362;-66
2021/08/12 04:52:28;;;;;;;;;;;18.20;1.00;;;;;;5032211;28;20338;-66
2021/08/12 04:54:53;;;;;;;;;;;18.30;1.00;;;;;;5032514;28;19913;-66
2021/08/12 04:57:18;;;;;;;;;;;18.40;99.90;;;;;;5031751;28;19917;-66
2021/08/12 04:59:44;;;;;;;;;;;18.60;99.90;;;;;;5031615;28;19913;-66
2021/08/12 05:02:09;;;;;;;;;;;18.70;99.90;;;;;;5031825;28;19909;-66
2021/08/12 05:04:35;;;;;;;;;;;18.80;1.00;;;;;;5031740;28;19963;-66
2021/08/12 05:07:00;;;;;;;;;;;18.90;1.00;;;;;;5031850;28;19945;-66
2021/08/12 05:09:26;;;;;;;;;;;19.00;1.00;;;;;;5031182;28;20390;-66
2021/08/12 05:11:51;;;;;;;;;;;19.10;1.00;;;;;;5031706;28;19963;-66
2021/08/12 05:14:17;;;;;;;;;;;19.20;99.90;;;;;;5031212;28;19920;-66
2021/08/12 05:16:42;;;;;;;;;;;19.30;1.00;;;;;;5031741;28;19955;-66
2021/08/12 05:19:08;;;;;;;;;;;19.50;1.00;;;;;;5031004;28;19936;-66
2021/08/12 05:21:33;;;;;;;;;;;19.70;99.90;;;;;;5031594;28;19941;-67
2021/08/12 05:23:59;;;;;;;;;;;20.50;99.90;;;;;;5031986;28;19975;-68
2021/08/12 05:26:24;;;;;;;;;;;21.30;99.90;;;;;;5031222;28;19909;-67
2021/08/12 05:28:50;;;;;;;;;;;22.00;99.90;;;;;;5030532;28;19913;-68
2021/08/12 05:31:15;;;;;;;;;;;22.50;99.90;;;;;;5031298;28;19917;-68
2021/08/12 05:33:41;;;;;;;;;;;23.20;1.00;;;;;;5031384;28;19910;-68
2021/08/12 05:36:07;;;;;;;;;;;23.80;1.00;;;;;;5031154;28;19916;-68
2021/08/12 05:38:32;;;;;;;;;;;24.30;1.00;;;;;;5030383;28;20440;-68
2021/08/12 05:40:58;;;;;;;;;;;24.60;99.90;;;;;;5031277;28;19913;-68
2021/08/12 05:43:23;;;;;;;;;;;25.10;99.90;;;;;;5030446;28;19909;-68
2021/08/12 05:45:49;;;;;;;;;;;25.70;99.90;;;;;;5031443;28;19945;-68
2021/08/12 05:48:15;;;;;;;;;;;26.50;99.90;;;;;;5030469;28;19913;-68
2021/08/12 05:50:44;;;;;;;;;;;27.20;99.90;;;;;;5030854;28;19956;-68
2021/08/12 05:53:14;;;;;;;;;;;27.80;99.90;;;;;;5030790;28;20388;-68
2021/08/12 05:55:40;;;;;;;;;;;28.40;99.90;;;;;;5030999;28;19959;-68
2021/08/12 05:58:06;;;;;;;;;;;28.80;99.90;;;;;;5030133;28;19943;-68
2021/08/12 06:00:31;;;;;;;;;;;29.40;99.90;;;;;;5031125;28;20015;-68
2021/08/12 06:03:04;;;;;;;;;;;30.00;99.90;;;;;;5031262;28;19909;-68
2021/08/12 06:05:29;;;;;;;;;;;30.70;99.90;;;;;;5031148;28;20114;-68
2021/08/12 06:07:55;;;;;;;;;;;31.20;99.90;;;;;;5030124;28;20004;-68
2021/08/12 06:10:21;;;;;;;;;;;32.00;99.90;;;;;;5030864;28;19967;-66
2021/08/12 06:12:46;;;;;;;;;;;32.50;99.90;;;;;;5030163;28;19963;-66
2021/08/12 06:15:12;;;;;;;;;;;33.00;99.90;;;;;;5030831;28;19909;-67
2021/08/12 06:17:37;;;;;;;;;;;33.80;99.90;;;;;;5029986;28;19913;-67
2021/08/12 06:20:03;;;;;;;;;;;34.40;99.90;;;;;;5030545;28;19944;-67
2021/08/12 06:22:28;;;;;;;;;;;34.40;99.90;;;;;;5030512;28;19909;-66
2021/08/12 06:24:54;;;;;;;;;;;34.70;99.90;;;;;;5030603;28;19951;-67
2021/08/12 06:27:19;;;;;;;;;;;35.20;99.90;;;;;;5030358;28;19956;-67
2021/08/12 06:29:45;;;;;;;;;;;35.40;99.90;;;;;;5030685;28;20278;-67
2021/08/12 06:32:11;;;;;;;;;;;34.30;99.90;;;;;;5030622;28;19971;-66
2021/08/12 06:34:37;;;;;;;;;;;33.30;99.90;;;;;;5030657;28;19909;-67
2021/08/12 06:37:02;;;;;;;;;;;31.90;99.90;;;;;;5030211;28;20377;-66
2021/08/12 06:39:28;;;;;;;;;;;30.80;99.90;;;;;;5029943;28;19921;-66
2021/08/12 06:41:53;;;;;;;;;;;29.90;99.90;;;;;;5030486;28;19968;-66
2021/08/12 06:44:19;;;;;;;;;;;28.60;99.90;;;;;;5030377;28;20374;-69
2021/08/12 06:46:44;;;;;;;;;;;27.70;99.90;;;;;;5030303;28;19940;-65
2021/08/12 06:49:10;;;;;;;;;;;27.00;99.90;;;;;;5029608;28;19959;-68
2021/08/12 06:51:36;;;;;;;;;;;26.40;99.90;;;;;;5030415;28;19909;-68
2021/08/12 06:54:01;;;;;;;;;;;26.20;99.90;;;;;;5030434;28;19964;-68
2021/08/12 06:56:27;;;;;;;;;;;26.30;99.90;;;;;;5034551;28;20028;-66
2021/08/12 06:58:52;;;;;;;;;;;27.10;99.90;;;;;;5032899;28;19975;-68
2021/08/12 07:01:18;;;;;;;;;;;28.50;99.90;;;;;;5034723;28;20016;-67
2021/08/12 07:03:43;;;;;;;;;;;30.10;99.90;;;;;;5034228;28;20004;-68
2021/08/12 07:06:09;;;;;;;;;;;31.50;99.90;;;;;;5034349;28;19913;-68
2021/08/12 07:08:34;;;;;;;;;;;33.20;99.90;;;;;;5033397;28;19913;-68
2021/08/12 07:11:00;;;;;;;;;;;34.20;99.90;;;;;;5033870;28;19956;-68
2021/08/12 07:13:25;;;;;;;;;;;35.70;99.90;;;;;;5033675;28;19909;-68
2021/08/12 07:15:50;;;;;;;;;;;36.60;99.90;;;;;;5033895;28;20015;-68
2021/08/12 07:18:16;;;;;;;;;;;36.90;99.90;;;;;;5033004;28;20273;-68
2021/08/12 07:20:42;;;;;;;;;;;37.00;99.90;;;;;;5033868;28;19909;-66
2021/08/12 07:23:07;;;;;;;;;;;37.20;99.90;;;;;;5033444;28;19909;-68
2021/08/12 07:25:33;;;;;;;;;;;38.30;99.90;;;;;;5033958;28;20388;-68
2021/08/12 07:27:58;;;;;;;;;;;38.10;99.90;;;;;;5032664;28;19955;-69
2021/08/12 07:30:24;;;;;;;;;;;38.20;99.90;;;;;;5033694;28;19962;-68
2021/08/12 07:32:49;;;;;;;;;;;38.40;99.90;;;;;;5034178;28;19944;-69
2021/08/12 07:35:17;;;;;;;;;;;39.10;99.90;;;;;;5033119;28;19910;-66
2021/08/12 07:37:43;;;;;;;;;;;40.00;99.90;;;;;;5032531;28;20473;-66
2021/08/12 07:40:09;;;;;;;;;;;40.70;99.90;;;;;;5033551;28;19910;-66
2021/08/12 07:42:34;;;;;;;;;;;41.30;99.90;;;;;;5033300;28;19916;-66
2021/08/12 07:45:02;;;;;;;;;;;41.80;99.90;;;;;;5033541;28;19909;-66
2021/08/12 07:47:29;;;;;;;;;;;42.40;99.90;;;;;;5032609;28;19928;-66
2021/08/12 07:49:55;;;;;;;;;;;42.90;99.90;;;;;;5033180;28;19909;-66
2021/08/12 07:52:20;;;;;;;;;;;43.00;99.90;;;;;;5033313;28;19935;-66
2021/08/12 07:54:48;;;;;;;;;;;42.90;98.60;;;;;;5033132;28;19975;-66
2021/08/12 07:57:14;;;;;;;;;;;43.40;95.40;;;;;;5033076;28;19909;-66
2021/08/12 07:59:40;;;;;;;;;;;42.80;91.40;;;;;;5032438;28;19924;-66
2021/08/12 08:02:05;;;;;;;;;;;41.80;85.40;;;;;;5033295;28;19909;-66
2021/08/12 08:04:31;;;;;;;;;;;42.30;82.50;;;;;;5033061;28;20110;-66
2021/08/12 08:06:59;;;;;;;;;;;42.90;79.30;;;;;;5033013;28;19915;-66
2021/08/12 08:09:25;;;;;;;;;;;42.90;73.90;;;;;;5032546;28;20286;-67
2021/08/12 08:11:50;;;;;;;;;;;43.50;69.00;;;;;;5033241;28;19909;-66
2021/08/12 08:14:16;;;;;;;;;;;43.60;62.80;;;;;;5032518;28;20457;-66
2021/08/12 08:16:43;;;;;;;;;;;44.00;59.80;;;;;;5033225;28;20398;-66
2021/08/12 08:19:08;;;;;;;;;;;44.90;57.20;;;;;;5031866;28;20392;-67
2021/08/12 08:21:34;;;;;;;;;;;46.40;56.40;;;;;;5032427;28;19913;-66
2021/08/12 08:24:00;;;;;;;;;;;45.90;50.70;;;;;;5032733;28;20183;-66
2021/08/12 08:26:25;;;;;;;;;;;45.90;46.90;;;;;;5032506;28;19913;-67
2021/08/12 08:28:50;;;;;;;;;;;45.70;42.60;;;;;;5031490;28;19909;-66
2021/08/12 08:31:16;;;;;;;;;;;44.20;37.90;;;;;;5032825;28;19972;-66
2021/08/12 08:33:41;;;;;;;;;;;43.20;35.00;;;;;;5032184;28;19909;-66
2021/08/12 08:36:07;;;;;;;;;;;42.00;33.00;;;;;;5032755;28;19915;-66
2021/08/12 08:38:32;;;;;;;;;;;41.20;33.10;;;;;;5031388;28;20382;-66
2021/08/12 08:40:58;;;;;;;;;;;40.90;33.60;;;;;;5032760;28;19996;-66
2021/08/12 08:43:24;;;;;;;;;;;41.30;35.70;;;;;;5031976;28;19916;-66
2021/08/12 08:45:51;;;;;;;;;;;42.70;36.80;;;;;;5032025;28;19920;-66
2021/08/12 08:48:17;;;;;;;;;;;44.00;37.10;;;;;;5031496;28;19928;-66
2021/08/12 08:50:44;;;;;;;;;;;44.10;35.70;;;;;;5032050;28;19913;-66
2021/08/12 08:53:14;;;;;;;;;;;45.00;35.30;;;;;;5031887;28;19909;-66
2021/08/12 08:55:40;;;;;;;;;;;46.30;34.90;;;;;;5032393;28;19974;-66
2021/08/12 08:58:06;;;;;;;;;;;46.30;31.40;;;;;;5030725;28;20015;-66
2021/08/12 09:00:32;;;;;;;;;;;45.60;28.20;;;;;;5032022;28;19909;-66
2021/08/12 09:02:57;;;;;;;;;;;46.70;28.00;;;;;;5031808;28;19913;-66
2021/08/12 09:05:23;;;;;;;;;;;46.40;25.20;;;;;;5032084;28;19913;-66
2021/08/12 09:07:50;;;;;;;;;;;47.60;25.30;;;;;;5031158;28;20727;-67
2021/08/12 09:10:16;;;;;;;;;;;48.30;24.30;;;;;;5031673;28;19909;-67
2021/08/12 09:12:43;;;;;;;;;;;49.30;23.30;;;;;;5031372;28;19913;-67
2021/08/12 09:15:09;;;;;;;;;;;49.50;20.60;;;;;;5031752;28;20362;-67
2021/08/12 09:17:35;;;;;;;;;;;49.30;17.90;;;;;;5030453;28;19910;-67
2021/08/12 09:20:14;;;;;;;;;;;49.70;16.20;;;;;;5031447;28;19967;-67
2021/08/12 09:22:52;;;;;;;;;;;49.50;13.60;;;;;;5031746;28;19909;-67
2021/08/12 09:25:27;;;;;;;;;;;49.50;11.00;;;;;;5031947;28;19913;-67
2021/08/12 09:28:11;;;;;;;;;;;49.20;8.40;;;;;;5030261;28;19956;-67
2021/08/12 09:30:36;;;;;;;;;;;48.90;4.70;;;;;;5031484;28;19924;-67
2021/08/12 09:33:02;;;;;;;;;;;49.40;14.80;;;;;;5031352;28;19917;-66
2021/08/12 09:35:27;;;;;;;;;;;49.50;4.30;;;;;;5031655;28;19920;-67
2021/08/12 09:38:05;;;;;;;;;;;49.50;3.10;;;;;;5030535;28;20281;-67
2021/08/12 09:40:30;;;;;;;;;;;49.50;1.30;;;;;;5031324;28;19909;-66
2021/08/12 09:43:00;;;;;;;;;;;48.70;1.00;;;;;;5030682;28;19916;-67
2021/08/12 09:45:27;;;;;;;;;;;48.90;1.00;;;;;;5031298;28;20120;-67
2021/08/12 09:47:53;;;;;;;;;;;48.90;1.00;;;;;;5030606;28;19913;-67
2021/08/12 09:50:31;;;;;;;;;;;48.20;1.00;;;;;;5030962;28;19956;-67
2021/08/12 09:52:57;;;;;;;;;;;46.70;1.00;;;;;;5030817;28;19909;-66
2021/08/12 09:55:23;;;;;;;;;;;44.50;1.00;;;;;;5031267;28;19967;-66
2021/08/12 09:57:52;;;;;;;;;;;45.10;1.00;;;;;;5029711;28;19913;-66
2021/08/12 10:00:21;;;;;;;;;;;44.90;1.00;;;;;;5030843;28;20008;-66
2021/08/12 10:02:46;;;;;;;;;;;44.60;1.00;;;;;;5031038;28;20389;-68
2021/08/12 10:05:12;;;;;;;;;;;44.40;1.00;;;;;;5031346;28;19909;-68
2021/08/12 10:07:41;;;;;;;;;;;43.40;1.00;;;;;;5030402;28;20390;-67
2021/08/12 10:10:16;;;;;;;;;;;44.60;1.00;;;;;;5030840;28;19916;-66
2021/08/12 10:12:46;;;;;;;;;;;46.40;2.50;;;;;;5030360;28;19909;-66
2021/08/12 10:15:17;;;;;;;;;;;46.90;1.60;;;;;;5031048;28;19948;-67
2021/08/12 10:17:43;;;;;;;;;;;46.40;1.00;;;;;;5029982;28;20377;-67
2021/08/12 10:20:13;;;;;;;;;;;46.50;1.00;;;;;;5030763;28;20008;-67
2021/08/12 10:22:39;;;;;;;;;;;46.90;1.00;;;;;;5030754;28;19909;-67
2021/08/12 10:25:05;;;;;;;;;;;46.20;1.00;;;;;;5030840;28;19909;-67
2021/08/12 10:27:31;;;;;;;;;;;44.90;1.00;;;;;;5030095;28;19916;-67
2021/08/12 10:29:57;;;;;;;;;;;43.40;1.00;;;;;;5031614;28;19924;-67
2021/08/12 10:32:23;;;;;;;;;;;41.70;1.00;;;;;;5034528;28;19913;-66
2021/08/12 10:34:49;;;;;;;;;;;42.20;1.00;;;;;;5034559;28;19920;-67
2021/08/12 10:37:14;;;;;;;;;;;42.50;1.60;;;;;;5034591;28;20393;-67
2021/08/12 10:39:41;;;;;;;;;;;43.40;3.30;;;;;;5034518;28;20368;-67
2021/08/12 10:42:07;;;;;;;;;;;44.40;4.40;;;;;;5035007;28;19909;-67
2021/08/12 10:44:32;;;;;;;;;;;44.90;4.60;;;;;;5033841;28;19909;-67
2021/08/12 10:46:58;;;;;;;;;;;43.50;2.70;;;;;;5034558;28;19963;-67
2021/08/12 10:49:30;;;;;;;;;;;44.40;4.30;;;;;;5033945;28;19920;-67
2021/08/12 10:52:06;;;;;;;;;;;44.50;4.80;;;;;;5034834;28;19909;-67
2021/08/12 10:54:33;;;;;;;;;;;43.70;3.10;;;;;;5034377;28;19952;-67
2021/08/12 10:57:15;;;;;;;;;;;42.60;1.50;;;;;;5034733;28;20395;-67
2021/08/12 10:59:41;;;;;;;;;;;41.70;1.00;;;;;;5034085;28;19917;-67
2021/08/12 11:02:42;;;;;;;;;;;41.20;1.00;;;;;;5034675;28;19913;-67
2021/08/12 11:05:08;;;;;;;;;;;40.50;1.60;;;;;;4992504;28;20271;-67
2021/08/12 11:07:40;;;;;;;;;;;40.90;3.40;;;;;;5024815;28;19970;-67
2021/08/12 11:10:10;;;;;;;;;;;41.60;4.80;;;;;;5034397;28;19909;-67
2021/08/12 11:12:57;;;;;;;;;;;42.00;5.60;;;;;;5033869;28;19917;-67
2021/08/12 11:15:41;;;;;;;;;;;41.90;4.20;;;;;;5034323;28;19920;-67
2021/08/12 11:18:08;;;;;;;;;;;41.70;5.30;;;;;;5033405;28;19920;-66
2021/08/12 11:20:35;;;;;;;;;;;42.10;5.80;;;;;;5034079;28;20285;-67
2021/08/12 11:23:19;;;;;;;;;;;42.70;5.70;;;;;;5034097;28;20107;-67
2021/08/12 11:25:58;;;;;;;;;;;43.00;5.00;;;;;;5034324;28;20027;-67
2021/08/12 11:28:39;;;;;;;;;;;42.90;4.20;;;;;;5032766;28;19916;-67
2021/08/12 11:31:05;;;;;;;;;;;43.10;3.80;;;;;;5033233;28;20011;-67
2021/08/12 11:33:32;;;;;;;;;;;43.40;3.80;;;;;;5033783;28;19909;-67
2021/08/12 11:36:06;;;;;;;;;;;43.60;3.40;;;;;;5033411;28;19917;-67
2021/08/12 11:38:32;;;;;;;;;;;43.80;3.50;;;;;;5032902;28;20003;-67
2021/08/12 11:40:58;;;;;;;;;;;43.60;2.40;;;;;;5032987;28;19967;-67
2021/08/12 11:43:23;;;;;;;;;;;42.50;1.00;;;;;;5032933;28;19992;-67
2021/08/12 11:45:49;;;;;;;;;;;41.70;1.00;;;;;;5033658;28;19974;-67
2021/08/12 11:48:15;;;;;;;;;;;40.60;1.00;;;;;;5033039;28;20284;-67
2021/08/12 11:50:41;;;;;;;;;;;40.00;1.00;;;;;;5033409;28;19920;-67
2021/08/12 11:53:06;;;;;;;;;;;39.90;2.30;;;;;;5033098;28;19909;-67
2021/08/12 11:55:35;;;;;;;;;;;39.90;3.60;;;;;;5033521;28;20394;-67
2021/08/12 11:58:01;;;;;;;;;;;39.10;4.00;;;;;;5032218;28;19909;-66
2021/08/12 12:00:31;;;;;;;;;;;38.90;3.60;;;;;;5031857;28;20285;-66
2021/08/12 12:03:00;;;;;;;;;;;39.20;4.90;;;;;;5033300;28;19909;-67
2021/08/12 12:05:28;;;;;;;;;;;39.40;5.50;;;;;;5033078;28;19913;-67
2021/08/12 12:07:54;;;;;;;;;;;39.60;5.90;;;;;;5032713;28;19955;-67
2021/08/12 12:10:29;;;;;;;;;;;39.40;5.50;;;;;;5033083;28;20008;-67
2021/08/12 12:13:05;;;;;;;;;;;39.20;6.30;;;;;;5032674;28;20008;-67
2021/08/12 12:15:32;;;;;;;;;;;38.90;6.20;;;;;;5033295;28;19909;-67
2021/08/12 12:17:58;;;;;;;;;;;38.80;7.10;;;;;;5032310;28;19913;-67
2021/08/12 12:20:25;;;;;;;;;;;39.10;8.10;;;;;;5032874;28;19994;-67
2021/08/12 12:22:58;;;;;;;;;;;39.10;7.70;;;;;;5032757;28;20006;-67
2021/08/12 12:25:24;;;;;;;;;;;39.10;7.80;;;;;;5032655;28;19913;-67
2021/08/12 12:27:49;;;;;;;;;;;38.90;7.90;;;;;;5032157;28;19909;-67
2021/08/12 12:30:16;;;;;;;;;;;38.80;8.40;;;;;;5032935;28;20290;-67
2021/08/12 12:32:42;;;;;;;;;;;38.60;8.20;;;;;;5032616;28;20231;-67
2021/08/12 12:35:08;;;;;;;;;;;38.40;7.90;;;;;;5032500;28;19913;-67
2021/08/12 12:37:35;;;;;;;;;;;38.20;8.30;;;;;;5031339;28;19913;-67
2021/08/12 12:40:01;;;;;;;;;;;37.90;8.20;;;;;;5032634;28;20404;-67
2021/08/12 12:42:31;;;;;;;;;;;37.50;7.60;;;;;;5032689;28;19929;-67
2021/08/12 12:44:57;;;;;;;;;;;37.10;6.80;;;;;;5032351;28;19909;-67
2021/08/12 12:47:24;;;;;;;;;;;36.80;7.40;;;;;;5031611;28;19920;-67
2021/08/12 12:49:49;;;;;;;;;;;36.50;6.90;;;;;;5032167;28;19915;-67
2021/08/12 12:52:16;;;;;;;;;;;36.20;7.90;;;;;;5031404;28;19910;-67
2021/08/12 12:54:43;;;;;;;;;;;35.90;9.00;;;;;;5032359;28;19909;-67
2021/08/12 12:57:09;;;;;;;;;;;35.50;10.10;;;;;;5032398;28;19955;-67
2021/08/12 12:59:35;;;;;;;;;;;35.20;11.20;;;;;;5030874;28;19960;-67
2021/08/12 13:02:00;;;;;;;;;;;34.70;11.40;;;;;;5032200;28;19909;-67
2021/08/12 13:04:26;;;;;;;;;;;34.10;11.90;;;;;;5032001;28;19936;-67
2021/08/12 13:06:52;;;;;;;;;;;33.80;13.70;;;;;;5032011;28;20711;-67
2021/08/12 13:09:30;;;;;;;;;;;33.70;15.60;;;;;;5031400;28;19909;-67
2021/08/12 13:11:56;;;;;;;;;;;33.60;16.40;;;;;;5031959;28;19913;-67
2021/08/12 13:14:31;;;;;;;;;;;33.40;18.60;;;;;;5031520;28;20420;-67
2021/08/12 13:16:56;;;;;;;;;;;33.30;19.50;;;;;;5032084;28;19910;-67
2021/08/12 13:19:23;;;;;;;;;;;33.20;21.30;;;;;;5030941;28;19917;-66
2021/08/12 13:21:50;;;;;;;;;;;33.10;23.20;;;;;;5031346;28;19991;-67
2021/08/12 13:24:16;;;;;;;;;;;32.90;24.20;;;;;;5031686;28;20004;-67
2021/08/12 13:26:43;;;;;;;;;;;33.00;25.50;;;;;;5031719;28;19909;-67
2021/08/12 13:29:11;;;;;;;;;;;33.20;26.20;;;;;;5030427;28;19932;-67
2021/08/12 13:31:45;;;;;;;;;;;33.30;28.10;;;;;;5031681;28;20267;-67
2021/08/12 13:34:11;;;;;;;;;;;33.30;27.50;;;;;;5031249;28;19913;-67
2021/08/12 13:36:37;;;;;;;;;;;33.30;28.00;;;;;;5031469;28;20000;-67
2021/08/12 13:39:02;;;;;;;;;;;33.10;41.10;;;;;;5030737;28;20043;-66
2021/08/12 13:41:30;;;;;;;;;;;33.10;29.60;;;;;;5030636;28;20205;-66
2021/08/12 13:43:56;;;;;;;;;;;33.10;29.50;;;;;;5030692;28;19968;-66
2021/08/12 13:46:21;;;;;;;;;;;33.10;30.20;;;;;;5031226;28;19909;-67
2021/08/12 13:48:47;;;;;;;;;;;33.10;30.20;;;;;;5030697;28;19919;-66
2021/08/12 13:51:12;;;;;;;;;;;33.20;30.00;;;;;;5031276;28;19909;-67
2021/08/12 13:53:38;;;;;;;;;;;33.20;31.40;;;;;;5031203;28;19917;-67
2021/08/12 13:56:04;;;;;;;;;;;33.40;32.20;;;;;;5030844;28;20323;-66
2021/08/12 13:58:29;;;;;;;;;;;32.90;30.70;;;;;;5029889;28;19913;-66
2021/08/12 14:00:55;;;;;;;;;;;32.70;31.30;;;;;;5030998;28;20008;-66
2021/08/12 14:03:23;;;;;;;;;;;32.50;31.30;;;;;;5030493;28;19909;-66
2021/08/12 14:05:48;;;;;;;;;;;32.60;32.00;;;;;;5030511;28;20007;-66
2021/08/12 14:08:17;;;;;;;;;;;32.70;32.70;;;;;;5029649;28;19967;-66
2021/08/12 14:10:42;;;;;;;;;;;32.20;31.30;;;;;;5030214;28;20290;-66
2021/08/12 14:13:08;;;;;;;;;;;32.10;32.00;;;;;;5030060;28;19913;-67
2021/08/12 14:15:33;;;;;;;;;;;32.10;32.30;;;;;;5030520;28;19967;-66
2021/08/12 14:17:59;;;;;;;;;;;31.90;32.20;;;;;;5029914;28;19932;-66
2021/08/12 14:20:24;;;;;;;;;;;31.90;33.70;;;;;;5030524;28;20284;-67
2021/08/12 14:22:50;;;;;;;;;;;31.80;34.10;;;;;;5030332;28;19916;-66